createdAt,value
2023-03-01T00:01:26.249Z,2.80
2023-03-01T00:03:54.537Z,2.80
2023-03-01T00:06:22.602Z,2.80
2023-03-01T00:08:50.588Z,2.70
2023-03-01T00:11:20.757Z,2.70
2023-03-01T00:13:50.882Z,2.70
2023-03-01T00:16:34.801Z,2.60
2023-03-01T00:19:02.855Z,2.60
2023-03-01T00:21:30.189Z,2.60
2023-03-01T00:23:58.269Z,2.50
2023-03-01T00:26:27.464Z,2.50
2023-03-01T00:28:58.938Z,2.40
2023-03-01T00:31:29.072Z,2.40
2023-03-01T00:33:58.687Z,2.50
2023-03-01T00:36:28.047Z,2.60
2023-03-01T00:38:55.910Z,2.60
2023-03-01T00:41:23.842Z,2.60
2023-03-01T00:43:51.642Z,2.60
2023-03-01T00:46:22.064Z,2.60
2023-03-01T00:48:50.153Z,2.60
2023-03-01T00:51:28.218Z,2.50
2023-03-01T00:54:00.145Z,2.50
2023-03-01T00:56:28.414Z,2.50
2023-03-01T00:58:55.956Z,2.60
2023-03-01T01:01:28.572Z,2.50
2023-03-01T01:03:59.192Z,2.50
2023-03-01T01:06:38.443Z,2.50
2023-03-01T01:09:07.996Z,2.50
2023-03-01T01:11:38.836Z,2.50
2023-03-01T01:14:06.243Z,2.50
2023-03-01T01:16:34.608Z,2.60
2023-03-01T01:19:02.447Z,2.60
2023-03-01T01:21:30.066Z,2.60
2023-03-01T01:23:58.395Z,2.60
2023-03-01T01:26:33.973Z,2.60
2023-03-01T01:29:03.076Z,2.60
2023-03-01T01:31:31.177Z,2.70
2023-03-01T01:34:00.266Z,2.60
2023-03-01T01:36:28.558Z,2.70
2023-03-01T01:38:56.176Z,2.70
2023-03-01T01:41:24.846Z,2.60
2023-03-01T01:44:14.829Z,2.60
2023-03-01T01:46:58.818Z,2.60
2023-03-01T01:49:28.565Z,2.60
2023-03-01T01:52:07.228Z,2.60
2023-03-01T01:54:54.599Z,2.60
2023-03-01T01:57:28.887Z,2.60
2023-03-01T02:00:00.058Z,2.60
2023-03-01T02:02:28.340Z,2.50
2023-03-01T02:05:04.861Z,2.50
2023-03-01T02:07:32.444Z,2.60
2023-03-01T02:09:59.934Z,2.60
2023-03-01T02:12:27.385Z,2.60
2023-03-01T02:14:55.901Z,2.60
2023-03-01T02:17:23.800Z,2.60
2023-03-01T02:20:08.166Z,2.60
2023-03-01T02:22:38.471Z,2.60
2023-03-01T02:25:20.883Z,2.70
2023-03-01T02:28:11.723Z,2.70
2023-03-01T02:30:59.371Z,2.70
2023-03-01T02:33:28.494Z,2.70
2023-03-01T02:35:57.143Z,2.60
2023-03-01T02:38:25.033Z,2.60
2023-03-01T02:40:53.403Z,2.60
2023-03-01T02:43:25.262Z,2.50
2023-03-01T02:45:54.041Z,2.50
2023-03-01T02:48:21.741Z,2.50
2023-03-01T02:51:09.324Z,2.50
2023-03-01T02:53:54.981Z,2.50
2023-03-01T02:56:22.354Z,2.50
2023-03-01T02:58:52.683Z,2.50
2023-03-01T03:01:21.754Z,2.60
2023-03-01T03:03:49.201Z,2.60
2023-03-01T03:06:18.253Z,2.60
2023-03-01T03:08:45.757Z,2.60
2023-03-01T03:11:13.043Z,2.60
2023-03-01T03:13:49.332Z,2.60
2023-03-01T03:16:18.215Z,2.60
2023-03-01T03:18:46.014Z,2.60
2023-03-01T03:21:14.267Z,2.60
2023-03-01T03:23:41.649Z,2.60
2023-03-01T03:26:08.948Z,2.60
2023-03-01T03:28:36.875Z,2.60
2023-03-01T03:31:08.251Z,2.60
2023-03-01T03:33:35.550Z,2.60
2023-03-01T03:36:02.906Z,2.60
2023-03-01T03:38:30.564Z,2.60
2023-03-01T03:41:04.147Z,2.60
2023-03-01T03:43:33.867Z,2.60
2023-03-01T03:46:01.673Z,2.60
2023-03-01T03:48:29.252Z,2.60
2023-03-01T03:50:57.748Z,2.70
2023-03-01T03:53:27.041Z,2.70
2023-03-01T03:55:55.119Z,2.70
2023-03-01T03:58:24.479Z,2.70
2023-03-01T04:00:54.368Z,2.70
2023-03-01T04:03:21.948Z,2.70
2023-03-01T04:05:51.713Z,2.70
2023-03-01T04:08:23.952Z,2.70
2023-03-01T04:10:57.634Z,2.60
2023-03-01T04:13:26.416Z,2.60
2023-03-01T04:15:55.310Z,2.70
2023-03-01T04:18:24.470Z,2.70
2023-03-01T04:20:53.363Z,2.60
2023-03-01T04:23:22.118Z,2.70
2023-03-01T04:26:00.381Z,2.70
2023-03-01T04:28:29.738Z,2.70
2023-03-01T04:30:59.589Z,2.70
2023-03-01T04:33:27.187Z,2.70
2023-03-01T04:35:54.684Z,2.70
2023-03-01T04:38:22.469Z,2.70
2023-03-01T04:40:49.963Z,2.70
2023-03-01T04:43:19.892Z,2.70
2023-03-01T04:45:47.192Z,2.70
2023-03-01T04:48:14.473Z,2.70
2023-03-01T04:50:41.860Z,2.60
2023-03-01T04:53:09.118Z,2.60
2023-03-01T04:55:38.057Z,2.60
2023-03-01T04:58:05.398Z,2.60
2023-03-01T05:00:32.762Z,2.60
2023-03-01T05:03:03.358Z,2.60
2023-03-01T05:05:38.986Z,2.60
2023-03-01T05:08:09.847Z,2.60
2023-03-01T05:10:38.849Z,2.60
2023-03-01T05:13:07.735Z,2.60
2023-03-01T05:15:35.146Z,2.60
2023-03-01T05:18:03.375Z,2.60
2023-03-01T05:20:31.467Z,2.60
2023-03-01T05:23:01.238Z,2.60
2023-03-01T05:25:34.241Z,2.60
2023-03-01T05:28:05.592Z,2.60
2023-03-01T05:30:34.660Z,2.60
2023-03-01T05:33:02.447Z,2.60
2023-03-01T05:35:30.763Z,2.60
2023-03-01T05:37:58.125Z,2.60
2023-03-01T05:40:25.677Z,2.60
2023-03-01T05:42:57.837Z,2.60
2023-03-01T05:45:28.252Z,2.60
2023-03-01T05:47:56.217Z,2.60
2023-03-01T05:50:29.394Z,2.60
2023-03-01T05:53:06.977Z,2.60
2023-03-01T05:55:36.034Z,2.60
2023-03-01T05:58:06.334Z,2.60
2023-03-01T06:00:34.221Z,2.70
2023-03-01T06:03:02.119Z,2.70
2023-03-01T06:05:29.813Z,2.70
2023-03-01T06:07:59.934Z,2.70
2023-03-01T06:10:27.207Z,2.70
2023-03-01T06:12:55.975Z,2.60
2023-03-01T06:15:24.115Z,2.60
2023-03-01T06:17:52.686Z,2.60
2023-03-01T06:20:23.520Z,2.60
2023-03-01T06:22:51.474Z,2.60
2023-03-01T06:25:21.912Z,2.70
2023-03-01T06:27:49.849Z,2.70
2023-03-01T06:30:19.180Z,2.70
2023-03-01T06:32:46.653Z,2.80
2023-03-01T06:35:15.710Z,2.80
2023-03-01T06:37:43.153Z,2.80
2023-03-01T06:40:12.752Z,2.80
2023-03-01T06:42:42.367Z,2.80
2023-03-01T06:45:10.810Z,2.80
2023-03-01T06:47:38.289Z,2.70
2023-03-01T06:50:06.010Z,2.70
2023-03-01T06:52:33.400Z,2.80
2023-03-01T06:55:00.913Z,2.70
2023-03-01T06:57:28.805Z,2.80
2023-03-01T06:59:56.065Z,2.80
2023-03-01T07:02:23.612Z,2.70
2023-03-01T07:04:51.693Z,2.70
2023-03-01T07:07:19.722Z,2.70
2023-03-01T07:09:47.560Z,2.70
2023-03-01T07:12:14.985Z,2.70
2023-03-01T07:14:42.726Z,2.70
2023-03-01T07:17:10.270Z,2.70
2023-03-01T07:19:37.569Z,2.70
2023-03-01T07:22:05.517Z,2.80
2023-03-01T07:24:32.866Z,2.80
2023-03-01T07:27:00.282Z,2.80
2023-03-01T07:29:27.605Z,2.90
2023-03-01T07:31:54.925Z,2.90
2023-03-01T07:34:22.462Z,2.90
2023-03-01T07:36:49.940Z,2.80
2023-03-01T07:39:18.750Z,2.90
2023-03-01T07:41:47.202Z,2.90
2023-03-01T07:44:14.603Z,3.00
2023-03-01T07:46:41.867Z,3.00
2023-03-01T07:49:09.557Z,2.90
2023-03-01T07:51:37.063Z,3.00
2023-03-01T07:54:04.491Z,2.90
2023-03-01T07:56:32.087Z,2.90
2023-03-01T07:59:00.652Z,3.00
2023-03-01T08:01:28.027Z,3.00
2023-03-01T08:03:55.491Z,3.00
2023-03-01T08:06:22.838Z,3.10
2023-03-01T08:08:50.469Z,3.10
2023-03-01T08:11:18.162Z,3.20
2023-03-01T08:13:51.108Z,3.20
2023-03-01T08:16:18.804Z,3.20
2023-03-01T08:18:46.222Z,3.20
2023-03-01T08:21:18.522Z,3.20
2023-03-01T08:23:46.157Z,3.20
2023-03-01T08:26:19.697Z,3.30
2023-03-01T08:28:48.279Z,3.30
2023-03-01T08:31:24.982Z,3.30
2023-03-01T08:33:58.309Z,3.30
2023-03-01T08:36:31.797Z,3.40
2023-03-01T08:39:00.007Z,3.50
2023-03-01T08:41:28.293Z,3.50
2023-03-01T08:43:59.936Z,3.60
2023-03-01T08:46:38.526Z,3.60
2023-03-01T08:49:08.141Z,3.70
2023-03-01T08:51:37.928Z,3.70
2023-03-01T08:54:06.448Z,3.70
2023-03-01T08:56:34.952Z,3.70
2023-03-01T08:59:02.272Z,3.70
2023-03-01T09:01:31.212Z,3.80
2023-03-01T09:03:58.502Z,3.80
2023-03-01T09:06:26.278Z,3.80
2023-03-01T09:08:53.817Z,3.90
2023-03-01T09:11:22.851Z,3.90
2023-03-01T09:13:50.709Z,3.90
2023-03-01T09:16:20.864Z,3.90
2023-03-01T09:18:55.845Z,3.90
2023-03-01T09:21:39.236Z,4.00
2023-03-01T09:24:14.689Z,4.00
2023-03-01T09:26:42.456Z,4.00
2023-03-01T09:29:11.175Z,4.00
2023-03-01T09:31:38.997Z,4.00
2023-03-01T09:34:08.420Z,4.00
2023-03-01T09:36:35.952Z,4.00
2023-03-01T09:39:06.946Z,4.10
2023-03-01T09:41:47.547Z,4.10
2023-03-01T09:44:36.756Z,4.10
2023-03-01T09:47:04.887Z,4.10
2023-03-01T09:49:38.008Z,4.10
2023-03-01T09:52:25.119Z,4.10
2023-03-01T09:54:58.142Z,4.10
2023-03-01T09:57:30.365Z,4.10
2023-03-01T10:00:40.507Z,4.00
2023-03-01T10:03:24.108Z,4.10
2023-03-01T10:05:59.122Z,4.20
2023-03-01T10:08:34.556Z,4.20
2023-03-01T10:11:02.003Z,4.20
2023-03-01T10:13:55.970Z,4.20
2023-03-01T10:16:39.261Z,4.30
2023-03-01T10:19:07.796Z,4.30
2023-03-01T10:21:42.242Z,4.20
2023-03-01T10:24:17.712Z,4.30
2023-03-01T10:27:03.876Z,4.30
2023-03-01T10:29:59.017Z,4.20
2023-03-01T10:32:27.238Z,4.30
2023-03-01T10:34:58.229Z,4.30
2023-03-01T10:37:28.388Z,4.20
2023-03-01T10:40:09.455Z,4.20
2023-03-01T10:42:47.850Z,4.10
2023-03-01T10:45:32.313Z,3.90
2023-03-01T10:48:17.863Z,4.00
2023-03-01T10:51:13.150Z,4.00
2023-03-01T10:53:51.976Z,4.00
2023-03-01T10:56:19.465Z,4.10
2023-03-01T10:59:00.911Z,4.10
2023-03-01T11:01:34.055Z,4.00
2023-03-01T11:04:07.741Z,4.00
2023-03-01T11:06:40.941Z,3.90
2023-03-01T11:09:18.858Z,4.00
2023-03-01T11:11:47.289Z,4.00
2023-03-01T11:14:26.826Z,4.10
2023-03-01T11:17:13.567Z,4.20
2023-03-01T11:19:40.827Z,4.30
2023-03-01T11:22:23.628Z,4.30
2023-03-01T11:25:09.063Z,4.30
2023-03-01T11:27:46.808Z,4.40
2023-03-01T11:30:24.403Z,4.40
2023-03-01T11:33:01.225Z,4.40
2023-03-01T11:35:30.027Z,4.50
2023-03-01T11:38:00.597Z,4.50
2023-03-01T11:40:43.523Z,4.60
2023-03-01T11:43:36.974Z,4.60
2023-03-01T11:46:23.929Z,4.70
2023-03-01T11:49:00.414Z,4.80
2023-03-01T11:51:52.459Z,4.80
2023-03-01T11:54:29.028Z,4.80
2023-03-01T11:57:13.778Z,4.90
2023-03-01T11:59:51.922Z,4.90
2023-03-01T12:02:52.682Z,4.90
2023-03-01T12:05:45.515Z,4.90
2023-03-01T12:08:31.194Z,5.00
2023-03-01T12:11:04.548Z,5.00
2023-03-01T12:13:52.174Z,5.10
2023-03-01T12:17:00.479Z,5.10
2023-03-01T12:19:36.803Z,5.20
2023-03-01T12:22:10.009Z,5.20
2023-03-01T12:25:14.572Z,5.30
2023-03-01T12:27:59.175Z,5.30
2023-03-01T12:30:54.171Z,5.40
2023-03-01T12:33:31.179Z,5.50
2023-03-01T12:36:10.980Z,5.50
2023-03-01T12:39:11.334Z,5.60
2023-03-01T12:41:49.334Z,5.60
2023-03-01T12:44:35.289Z,5.60
2023-03-01T12:47:18.549Z,5.70
2023-03-01T12:49:59.468Z,5.70
2023-03-01T12:52:39.414Z,5.80
2023-03-01T12:55:23.753Z,5.80
2023-03-01T12:58:06.678Z,5.90
2023-03-01T13:01:03.092Z,5.90
2023-03-01T13:03:57.930Z,6.00
2023-03-01T13:06:43.762Z,6.00
2023-03-01T13:09:24.442Z,6.10
2023-03-01T13:11:51.821Z,6.10
2023-03-01T13:14:22.632Z,6.20
2023-03-01T13:16:52.689Z,6.20
2023-03-01T13:19:23.835Z,6.20
2023-03-01T13:21:55.372Z,6.30
2023-03-01T13:24:29.697Z,6.40
2023-03-01T13:27:12.017Z,6.40
2023-03-01T13:29:49.397Z,6.40
2023-03-01T13:32:37.896Z,6.50
2023-03-01T13:35:19.132Z,6.50
2023-03-01T13:37:47.181Z,6.60
2023-03-01T13:40:19.453Z,6.60
2023-03-01T13:43:04.212Z,6.60
2023-03-01T13:45:36.075Z,6.60
2023-03-01T13:48:28.769Z,6.60
2023-03-01T13:51:03.388Z,6.60
2023-03-01T13:53:40.292Z,6.60
2023-03-01T13:56:20.682Z,6.60
2023-03-01T13:58:50.968Z,6.70
2023-03-01T14:01:34.051Z,6.60
2023-03-01T14:04:02.922Z,6.60
2023-03-01T14:06:33.742Z,6.60
2023-03-01T14:09:24.938Z,6.60
2023-03-01T14:11:58.258Z,6.60
2023-03-01T14:14:47.460Z,6.60
2023-03-01T14:17:56.407Z,6.50
2023-03-01T14:20:28.115Z,6.60
2023-03-01T14:22:58.598Z,6.60
2023-03-01T14:25:39.542Z,6.60
2023-03-01T14:28:16.648Z,6.60
2023-03-01T14:30:50.008Z,6.50
2023-03-01T14:33:26.515Z,6.60
2023-03-01T14:36:04.881Z,6.50
2023-03-01T14:38:42.705Z,6.50
2023-03-01T14:41:16.842Z,6.50
2023-03-01T14:43:52.045Z,6.50
2023-03-01T14:46:30.844Z,6.50
2023-03-01T14:49:05.420Z,6.60
2023-03-01T14:51:41.380Z,6.60
2023-03-01T14:54:44.108Z,6.50
2023-03-01T14:57:17.115Z,6.60
2023-03-01T14:59:45.744Z,6.60
2023-03-01T15:02:22.518Z,6.60
2023-03-01T15:04:57.816Z,6.60
2023-03-01T15:07:38.037Z,6.70
2023-03-01T15:10:07.784Z,6.70
2023-03-01T15:12:40.665Z,6.70
2023-03-01T15:15:31.293Z,6.70
2023-03-01T15:18:01.125Z,6.70
2023-03-01T15:20:31.626Z,6.70
2023-03-01T15:23:00.481Z,6.70
2023-03-01T15:25:30.751Z,6.70
2023-03-01T15:28:00.971Z,6.70
2023-03-01T15:30:35.998Z,6.80
2023-03-01T15:33:25.849Z,6.80
2023-03-01T15:35:55.067Z,6.80
2023-03-01T15:38:33.945Z,6.80
2023-03-01T15:41:07.502Z,6.80
2023-03-01T15:43:48.356Z,6.80
2023-03-01T15:46:19.845Z,6.80
2023-03-01T15:48:48.298Z,6.70
2023-03-01T15:51:16.190Z,6.70
2023-03-01T15:53:54.451Z,6.70
2023-03-01T15:56:22.390Z,6.70
2023-03-01T15:58:49.797Z,6.70
2023-03-01T16:01:19.131Z,6.70
2023-03-01T16:03:46.943Z,6.70
2023-03-01T16:06:14.802Z,6.70
2023-03-01T16:08:43.074Z,6.70
2023-03-01T16:11:19.170Z,6.70
2023-03-01T16:13:47.300Z,6.70
2023-03-01T16:16:18.130Z,6.60
2023-03-01T16:18:47.242Z,6.60
2023-03-01T16:21:24.094Z,6.60
2023-03-01T16:23:52.637Z,6.60
2023-03-01T16:26:21.647Z,6.60
2023-03-01T16:28:49.681Z,6.60
2023-03-01T16:31:22.661Z,6.50
2023-03-01T16:33:52.493Z,6.60
2023-03-01T16:36:21.864Z,6.60
2023-03-01T16:38:50.755Z,6.60
2023-03-01T16:41:20.840Z,6.60
2023-03-01T16:43:49.307Z,6.60
2023-03-01T16:46:23.837Z,6.60
2023-03-01T16:48:52.218Z,6.60
2023-03-01T16:51:21.282Z,6.50
2023-03-01T16:53:49.073Z,6.40
2023-03-01T16:56:16.871Z,6.50
2023-03-01T16:58:45.236Z,6.50
2023-03-01T17:01:21.537Z,6.50
2023-03-01T17:03:50.988Z,6.50
2023-03-01T17:06:21.862Z,6.50
2023-03-01T17:08:49.694Z,6.40
2023-03-01T17:11:19.569Z,6.50
2023-03-01T17:13:48.823Z,6.40
2023-03-01T17:16:21.092Z,6.40
2023-03-01T17:18:52.402Z,6.30
2023-03-01T17:21:20.544Z,6.30
2023-03-01T17:23:50.829Z,6.40
2023-03-01T17:26:18.485Z,6.40
2023-03-01T17:28:52.948Z,6.30
2023-03-01T17:31:27.778Z,6.30
2023-03-01T17:33:59.345Z,6.20
2023-03-01T17:36:28.343Z,6.20
2023-03-01T17:38:56.756Z,6.20
2023-03-01T17:41:25.671Z,6.20
2023-03-01T17:43:53.869Z,6.20
2023-03-01T17:46:22.850Z,6.20
2023-03-01T17:48:50.829Z,6.20
2023-03-01T17:51:18.888Z,6.20
2023-03-01T17:53:48.253Z,6.20
2023-03-01T17:56:22.318Z,6.20
2023-03-01T17:58:50.558Z,6.20
2023-03-01T18:01:27.158Z,6.20
2023-03-01T18:03:55.599Z,6.20
2023-03-01T18:06:29.663Z,6.10
2023-03-01T18:09:01.668Z,6.10
2023-03-01T18:11:29.883Z,6.00
2023-03-01T18:13:58.297Z,6.00
2023-03-01T18:16:26.040Z,6.00
2023-03-01T18:18:55.994Z,5.90
2023-03-01T18:21:24.171Z,5.90
2023-03-01T18:23:52.437Z,5.80
2023-03-01T18:26:22.960Z,5.90
2023-03-01T18:28:52.538Z,5.90
2023-03-01T18:31:23.240Z,6.00
2023-03-01T18:33:54.080Z,6.00
2023-03-01T18:36:28.625Z,5.90
2023-03-01T18:38:57.417Z,5.90
2023-03-01T18:41:28.409Z,5.80
2023-03-01T18:43:57.675Z,5.70
2023-03-01T18:46:29.325Z,5.80
2023-03-01T18:48:57.572Z,5.80
2023-03-01T18:51:30.706Z,5.80
2023-03-01T18:54:01.471Z,5.80
2023-03-01T18:56:34.442Z,5.90
2023-03-01T18:59:04.166Z,5.80
2023-03-01T19:01:36.877Z,5.80
2023-03-01T19:04:06.320Z,5.80
2023-03-01T19:06:36.519Z,5.90
2023-03-01T19:09:06.058Z,5.80
2023-03-01T19:11:36.025Z,5.80
2023-03-01T19:14:12.166Z,5.80
2023-03-01T19:16:42.216Z,5.80
2023-03-01T19:19:11.850Z,5.80
2023-03-01T19:21:40.535Z,5.80
2023-03-01T19:24:09.045Z,5.80
2023-03-01T19:26:42.502Z,5.80
2023-03-01T19:29:12.489Z,5.80
2023-03-01T19:31:42.320Z,5.80
2023-03-01T19:34:19.819Z,5.80
2023-03-01T19:36:49.135Z,5.80
2023-03-01T19:39:17.844Z,5.80
2023-03-01T19:41:48.214Z,5.80
2023-03-01T19:44:19.200Z,5.80
2023-03-01T19:46:48.398Z,5.80
2023-03-01T19:49:20.133Z,5.80
2023-03-01T19:51:50.522Z,5.70
2023-03-01T19:54:20.933Z,5.80
2023-03-01T19:56:54.238Z,5.80
2023-03-01T19:59:24.833Z,5.80
2023-03-01T20:01:58.243Z,5.80
2023-03-01T20:04:26.708Z,5.80
2023-03-01T20:06:55.008Z,5.80
2023-03-01T20:09:23.359Z,5.70
2023-03-01T20:11:53.172Z,5.70
2023-03-01T20:14:24.185Z,5.70
2023-03-01T20:16:53.530Z,5.60
2023-03-01T20:19:22.119Z,5.60
2023-03-01T20:21:51.178Z,5.60
2023-03-01T20:24:21.468Z,5.50
2023-03-01T20:26:50.409Z,5.50
2023-03-01T20:29:18.370Z,5.50
2023-03-01T20:31:46.678Z,5.50
2023-03-01T20:34:15.652Z,5.50
2023-03-01T20:36:44.902Z,5.50
2023-03-01T20:39:13.656Z,5.50
2023-03-01T20:41:41.736Z,5.50
2023-03-01T20:44:09.965Z,5.50
2023-03-01T20:46:38.791Z,5.50
2023-03-01T20:49:07.995Z,5.50
2023-03-01T20:51:37.841Z,5.50
2023-03-01T20:54:06.156Z,5.40
2023-03-01T20:56:34.400Z,5.40
2023-03-01T20:59:04.590Z,5.50
2023-03-01T21:01:33.077Z,5.50
2023-03-01T21:04:00.974Z,5.50
2023-03-01T21:06:29.561Z,5.50
2023-03-01T21:08:57.977Z,5.50
2023-03-01T21:11:25.883Z,5.40
2023-03-01T21:13:57.804Z,5.40
2023-03-01T21:16:25.693Z,5.40
2023-03-01T21:18:54.857Z,5.40
2023-03-01T21:21:25.637Z,5.40
2023-03-01T21:23:54.817Z,5.40
2023-03-01T21:26:26.004Z,5.40
2023-03-01T21:29:03.532Z,5.40
2023-03-01T21:31:35.043Z,5.30
2023-03-01T21:34:06.558Z,5.30
2023-03-01T21:36:35.659Z,5.40
2023-03-01T21:39:05.499Z,5.40
2023-03-01T21:41:38.128Z,5.40
2023-03-01T21:44:07.434Z,5.40
2023-03-01T21:46:37.522Z,5.20
2023-03-01T21:49:06.140Z,5.20
2023-03-01T21:51:34.026Z,5.20
2023-03-01T21:54:01.479Z,5.30
2023-03-01T21:56:32.113Z,5.30
2023-03-01T21:58:59.858Z,5.40
2023-03-01T22:01:28.663Z,5.40
2023-03-01T22:04:00.520Z,5.40
2023-03-01T22:06:31.371Z,5.40
2023-03-01T22:09:01.700Z,5.40
2023-03-01T22:11:29.184Z,5.40
2023-03-01T22:13:56.798Z,5.40
2023-03-01T22:16:30.825Z,5.40
2023-03-01T22:19:00.098Z,5.30
2023-03-01T22:21:27.997Z,5.30
2023-03-01T22:23:56.544Z,5.30
2023-03-01T22:26:26.354Z,5.30
2023-03-01T22:28:55.201Z,5.20
2023-03-01T22:31:22.796Z,5.20
2023-03-01T22:33:51.045Z,5.30
2023-03-01T22:36:18.522Z,5.30
2023-03-01T22:38:46.092Z,5.30
2023-03-01T22:41:13.895Z,5.30
2023-03-01T22:43:41.454Z,5.30
2023-03-01T22:46:18.059Z,5.30
2023-03-01T22:48:46.543Z,5.20
2023-03-01T22:51:19.893Z,5.20
2023-03-01T22:53:47.821Z,5.20
2023-03-01T22:56:19.130Z,5.30
2023-03-01T22:58:46.653Z,5.30
2023-03-01T23:01:19.249Z,5.20
2023-03-01T23:03:47.574Z,5.30
2023-03-01T23:06:16.498Z,5.30
2023-03-01T23:08:44.985Z,5.30
2023-03-01T23:11:15.036Z,5.20
2023-03-01T23:13:43.572Z,5.20
2023-03-01T23:16:11.907Z,5.20
2023-03-01T23:18:39.785Z,5.20
2023-03-01T23:21:16.020Z,5.20
2023-03-01T23:23:43.949Z,5.30
2023-03-01T23:26:11.409Z,5.30
2023-03-01T23:28:41.064Z,5.30
2023-03-01T23:31:11.480Z,5.20
2023-03-01T23:33:39.114Z,5.20
2023-03-01T23:36:14.693Z,5.20
2023-03-01T23:38:42.405Z,5.30
2023-03-01T23:41:14.157Z,5.20
2023-03-01T23:43:44.943Z,5.20
2023-03-01T23:46:14.546Z,5.20
2023-03-01T23:48:43.577Z,5.20
2023-03-01T23:51:12.027Z,5.10
2023-03-01T23:53:42.634Z,5.10
2023-03-01T23:56:13.446Z,5.10
2023-03-01T23:58:40.801Z,5.10
